Time;durP1;ratioP1;P1;durP2;ratioP2;P2;SDS_P1;SDS_P2;PMS_P1;PMS_P2;Temp;Humidity;BMP_temperature;BMP_pressure;BME280_temperature;BME280_humidity;BME280_pressure;Samples;Min_cycle;Max_cycle;Signal;HPM_P1;HPM_P2
2021/12/19 00:01:03;;;;;;;8.33;3.60;;;4.20;99.90;;;5.00;100.00;99893.16;5051938;28;20581;-80
2021/12/19 00:03:50;;;;;;;6.73;3.77;;;4.30;99.90;;;5.03;100.00;99892.94;5040605;28;20551;-80
2021/12/19 00:09:07;;;;;;;8.03;4.43;;;4.30;99.90;;;5.05;100.00;99885.91;5047996;28;20494;-79
2021/12/19 00:11:38;;;;;;;9.13;4.77;;;4.30;99.90;;;5.05;100.00;99882.47;5051054;28;20476;-80
2021/12/19 00:14:07;;;;;;;12.20;4.50;;;4.30;99.90;;;5.05;100.00;99892.84;5048517;28;20445;-80
2021/12/19 00:16:38;;;;;;;6.47;4.47;;;4.30;99.90;;;5.03;100.00;99877.38;5044134;28;20467;-80
2021/12/19 00:19:09;;;;;;;8.03;4.47;;;4.20;99.90;;;5.02;100.00;99874.91;5038743;28;20464;-80
2021/12/19 00:21:40;;;;;;;6.97;4.23;;;4.10;99.90;;;5.03;100.00;99861.03;5050424;28;20553;-80
2021/12/19 00:24:10;;;;;;;6.37;3.90;;;4.20;99.90;;;5.06;100.00;99871.19;5045902;28;20452;-80
2021/12/19 00:26:40;;;;;;;6.60;4.27;;;4.30;99.90;;;5.08;100.00;99866.69;5042901;28;20487;-80
2021/12/19 00:29:11;;;;;;;7.77;4.67;;;4.30;99.90;;;5.08;100.00;99859.75;5050133;28;20487;-80
2021/12/19 00:31:40;;;;;;;10.17;3.93;;;4.30;99.90;;;5.10;100.00;99864.03;5046591;28;20505;-80
2021/12/19 00:34:12;;;;;;;10.30;4.53;;;4.30;99.90;;;5.12;100.00;99852.59;5050454;28;20507;-80
2021/12/19 00:36:41;;;;;;;10.30;4.70;;;4.20;99.90;;;5.11;100.00;99853.53;5045886;28;20441;-80
2021/12/19 00:39:11;;;;;;;9.03;5.07;;;4.30;99.90;;;5.11;100.00;99861.28;5042520;28;20465;-80
2021/12/19 00:41:42;;;;;;;5.50;4.23;;;4.30;99.90;;;5.12;100.00;99859.53;5045032;28;20503;-80
2021/12/19 00:44:14;;;;;;;7.70;4.53;;;4.30;99.90;;;5.16;100.00;99855.81;5040586;28;21023;-80
2021/12/19 00:46:49;;;;;;;9.30;4.70;;;4.30;99.90;;;5.17;100.00;99853.13;5046957;28;20511;-80
2021/12/19 00:49:23;;;;;;;6.07;3.63;;;4.30;99.90;;;5.15;100.00;99848.94;5045899;28;20975;-80
2021/12/19 00:51:53;;;;;;;7.20;4.17;;;4.30;99.90;;;5.16;100.00;99842.84;5047438;28;20980;-80
2021/12/19 00:54:24;;;;;;;8.07;5.00;;;4.30;99.90;;;5.19;100.00;99835.66;5050386;28;20453;-80
2021/12/19 00:56:54;;;;;;;11.23;4.90;;;4.40;99.90;;;5.20;100.00;99831.31;5053081;28;20457;-80
2021/12/19 00:59:24;;;;;;;5.53;3.93;;;4.40;99.90;;;5.21;100.00;99833.78;5046916;28;20491;-80
2021/12/19 01:01:54;;;;;;;7.90;4.40;;;4.50;99.90;;;5.14;100.00;99827.38;5047467;28;20923;-80
2021/12/19 01:04:25;;;;;;;9.07;3.87;;;4.40;99.90;;;5.19;100.00;99837.44;5050889;28;20454;-80
2021/12/19 01:06:57;;;;;;;3.57;2.67;;;4.40;99.90;;;5.19;100.00;99833.06;5050378;28;20511;-80
2021/12/19 01:09:27;;;;;;;4.00;2.67;;;4.50;99.90;;;5.23;100.00;99831.94;5039358;28;20992;-80
2021/12/19 01:11:56;;;;;;;4.97;2.90;;;4.60;99.90;;;5.25;100.00;99824.03;5047483;28;20471;-80
2021/12/19 01:14:26;;;;;;;4.57;2.90;;;4.60;99.90;;;5.29;100.00;99834.06;5049940;28;20452;-80
2021/12/19 01:16:56;;;;;;;3.90;3.30;;;4.60;99.90;;;5.32;100.00;99826.06;5048550;28;20472;-80
2021/12/19 01:19:26;;;;;;;5.37;3.10;;;4.60;99.90;;;5.35;100.00;99830.19;5049879;28;20461;-80
2021/12/19 01:21:55;;;;;;;4.17;3.07;;;4.70;99.90;;;5.33;100.00;99838.13;5046359;28;20553;-80
2021/12/19 01:24:24;;;;;;;3.90;3.00;;;4.70;99.90;;;5.37;100.00;99843.91;5041653;28;20527;-80
2021/12/19 01:26:54;;;;;;;5.73;3.50;;;4.70;99.90;;;5.39;100.00;99848.03;5045165;28;21038;-80
2021/12/19 01:29:24;;;;;;;4.53;2.17;;;4.70;99.90;;;5.33;100.00;99838.13;5048431;28;20461;-80
2021/12/19 01:31:55;;;;;;;2.60;2.40;;;4.60;99.90;;;5.32;100.00;99839.03;5043787;28;20449;-80
2021/12/19 01:34:27;;;;;;;2.70;2.50;;;4.60;99.90;;;5.34;100.00;99844.97;5047580;28;20511;-80
2021/12/19 01:36:57;;;;;;;2.17;1.90;;;4.60;99.90;;;5.34;100.00;99850.16;5045478;28;20466;-80
2021/12/19 01:39:27;;;;;;;3.30;2.43;;;4.60;99.90;;;5.35;100.00;99837.97;5044819;28;20469;-80
2021/12/19 01:41:59;;;;;;;4.10;2.40;;;4.70;99.90;;;5.37;100.00;99846.50;5041619;28;20488;-80
2021/12/19 01:44:29;;;;;;;4.37;3.00;;;4.60;99.90;;;5.40;100.00;99839.31;5034167;28;20463;-80
2021/12/19 01:46:59;;;;;;;3.33;2.70;;;4.70;99.90;;;5.42;100.00;99842.63;5052674;28;21018;-80
2021/12/19 01:49:30;;;;;;;3.70;2.60;;;4.70;99.90;;;5.46;100.00;99838.03;5043358;28;20488;-80
2021/12/19 01:52:01;;;;;;;4.30;3.00;;;4.70;99.90;;;5.45;100.00;99834.63;5048400;28;20877;-80
2021/12/19 01:54:32;;;;;;;3.20;2.80;;;4.70;99.90;;;5.48;100.00;99837.00;5043009;28;20465;-80
2021/12/19 01:57:02;;;;;;;2.50;2.30;;;4.80;99.90;;;5.46;100.00;99825.91;5045049;28;20523;-80
2021/12/19 01:59:31;;;;;;;4.17;2.70;;;4.70;99.90;;;5.48;100.00;99825.81;5049283;28;20862;-80
2021/12/19 02:02:00;;;;;;;2.60;2.40;;;4.80;99.90;;;5.49;100.00;99822.25;5049168;28;20493;-80
2021/12/19 02:04:33;;;;;;;3.03;2.57;;;4.70;99.90;;;5.50;100.00;99824.75;5045030;28;20487;-80
2021/12/19 02:07:03;;;;;;;3.40;2.70;;;4.70;99.90;;;5.51;100.00;99826.41;5044961;28;20548;-80
2021/12/19 02:09:31;;;;;;;3.10;2.53;;;4.70;99.90;;;5.52;100.00;99812.50;5042139;28;20489;-80
2021/12/19 02:12:03;;;;;;;3.97;2.30;;;4.90;99.90;;;5.51;100.00;99813.44;5045906;28;20465;-80
2021/12/19 02:14:32;;;;;;;3.93;2.60;;;4.90;99.90;;;5.46;100.00;99802.56;5044031;28;20632;-80
2021/12/19 02:17:02;;;;;;;4.37;2.50;;;4.90;99.90;;;5.47;100.00;99804.22;5045988;28;20483;-80
2021/12/19 02:19:33;;;;;;;3.73;2.87;;;4.90;99.90;;;5.50;100.00;99796.22;5044269;28;20496;-80
2021/12/19 02:22:05;;;;;;;4.00;2.50;;;4.80;99.90;;;5.47;100.00;99796.44;5047291;28;20497;-80
2021/12/19 02:24:35;;;;;;;2.60;2.30;;;4.70;99.90;;;5.42;100.00;99788.16;5035634;28;20548;-80
2021/12/19 02:27:04;;;;;;;3.10;2.30;;;4.60;99.90;;;5.47;100.00;99793.03;5046559;28;20570;-80
2021/12/19 02:29:35;;;;;;;2.93;2.53;;;4.80;99.90;;;5.48;100.00;99789.50;5046434;28;20457;-80
2021/12/19 02:32:07;;;;;;;3.70;2.57;;;4.80;99.90;;;5.46;100.00;99787.00;5041395;28;20458;-80
2021/12/19 02:34:42;;;;;;;2.47;1.97;;;4.70;99.90;;;5.49;100.00;99789.38;5046544;28;20477;-80
2021/12/19 02:37:33;;;;;;;2.60;2.00;;;4.80;99.90;;;5.51;100.00;99784.06;5042133;28;20527;-80
2021/12/19 02:40:28;;;;;;;2.43;2.17;;;4.70;99.90;;;5.52;100.00;99775.34;5047030;28;20496;-80
2021/12/19 02:48:32;;;;;;;2.40;1.80;;;4.80;99.90;;;5.52;100.00;99776.16;5052617;28;20514;-80
2021/12/19 02:51:02;;;;;;;2.87;2.20;;;4.80;99.90;;;5.48;100.00;99779.91;5042404;28;20475;-80
2021/12/19 02:53:37;;;;;;;2.30;2.00;;;4.80;99.90;;;5.44;100.00;99778.50;5040027;28;20483;-80
2021/12/19 02:56:10;;;;;;;2.50;2.13;;;4.70;99.90;;;5.47;100.00;99778.28;5042418;28;20456;-80
2021/12/19 02:58:42;;;;;;;3.40;2.40;;;4.80;99.90;;;5.47;100.00;99778.28;5047344;28;20541;-80
2021/12/19 03:01:18;;;;;;;2.57;2.33;;;4.70;99.90;;;5.37;100.00;99782.50;5040681;28;20460;-80
2021/12/19 03:03:48;;;;;;;2.70;2.07;;;4.50;99.90;;;5.35;100.00;99773.16;5046810;28;20981;-80
2021/12/19 03:06:18;;;;;;;2.80;2.30;;;4.50;99.90;;;5.37;100.00;99787.69;5038081;28;20533;-80
2021/12/19 03:08:51;;;;;;;3.93;2.37;;;4.70;99.90;;;5.39;100.00;99770.22;5041178;28;20469;-80
2021/12/19 03:12:03;;;;;;;2.47;2.27;;;4.60;99.90;;;5.39;100.00;99766.78;5046025;28;20515;-80
2021/12/19 03:20:11;;;;;;;3.47;2.37;;;4.60;99.90;;;5.43;100.00;99757.84;5046852;28;20475;-80
2021/12/19 03:22:40;;;;;;;3.20;2.60;;;4.60;99.90;;;5.39;100.00;99741.69;5044427;28;21044;-80
2021/12/19 03:25:11;;;;;;;3.23;2.13;;;4.60;99.90;;;5.39;100.00;99749.47;5039443;28;20475;-80
2021/12/19 03:27:40;;;;;;;2.80;2.50;;;4.60;99.90;;;5.41;100.00;99745.03;5048632;28;20493;-80
2021/12/19 03:30:11;;;;;;;2.60;2.40;;;4.60;99.90;;;5.45;100.00;99743.00;5044241;28;20461;-80
2021/12/19 03:32:41;;;;;;;3.50;2.40;;;4.60;99.90;;;5.45;100.00;99736.03;5041990;28;20465;-80
2021/12/19 03:35:11;;;;;;;2.80;2.40;;;4.60;99.90;;;5.45;100.00;99735.22;5044532;28;20499;-80
2021/12/19 03:37:43;;;;;;;2.73;2.50;;;4.60;99.90;;;5.46;100.00;99737.72;5045465;28;20456;-80
2021/12/19 03:40:22;;;;;;;3.00;2.50;;;4.70;99.90;;;5.50;100.00;99736.56;5042744;28;20462;-80
2021/12/19 03:42:55;;;;;;;2.90;2.60;;;4.70;99.90;;;5.47;100.00;99736.78;5042474;28;20523;-80
2021/12/19 03:45:26;;;;;;;2.90;2.63;;;4.70;99.90;;;5.50;100.00;99743.50;5040387;28;20469;-80
2021/12/19 03:47:56;;;;;;;3.00;2.53;;;4.70;99.90;;;5.52;100.00;99737.25;5042345;28;20527;-80
2021/12/19 03:50:26;;;;;;;2.90;2.43;;;4.80;99.90;;;5.50;100.00;99733.13;5043561;28;20978;-80
2021/12/19 03:52:56;;;;;;;2.77;2.50;;;4.70;99.90;;;5.50;100.00;99726.16;5033653;28;21364;-80
2021/12/19 03:55:28;;;;;;;2.83;2.60;;;4.70;99.90;;;5.50;100.00;99726.16;5045286;28;20461;-80
2021/12/19 03:57:59;;;;;;;2.43;2.20;;;4.70;99.90;;;5.52;100.00;99720.84;5046570;28;20530;-80
2021/12/19 04:00:31;;;;;;;3.67;3.27;;;4.80;99.90;;;5.49;100.00;99727.09;5040333;28;20491;-80
2021/12/19 04:03:09;;;;;;;4.17;2.60;;;4.70;99.90;;;5.49;100.00;99721.91;5046586;28;20489;-80
2021/12/19 04:05:42;;;;;;;8.30;3.00;;;4.60;99.90;;;5.51;100.00;99722.66;5041637;28;20464;-80
2021/12/19 04:08:12;;;;;;;3.63;2.80;;;4.80;99.90;;;5.39;100.00;99726.13;5051537;28;20877;-80
2021/12/19 04:10:46;;;;;;;3.43;2.53;;;4.60;99.90;;;5.43;100.00;99722.38;5043222;28;21019;-80
2021/12/19 04:13:17;;;;;;;3.40;2.70;;;4.70;99.90;;;5.42;100.00;99723.31;5043058;28;20453;-80
2021/12/19 04:15:49;;;;;;;4.30;3.10;;;4.70;99.90;;;5.45;100.00;99720.47;5043062;28;20461;-80
2021/12/19 04:18:19;;;;;;;3.43;3.13;;;4.70;99.90;;;5.45;100.00;99712.69;5046203;28;20469;-80
2021/12/19 04:20:50;;;;;;;4.00;3.17;;;4.70;99.90;;;5.47;100.00;99718.63;5049152;28;20469;-80
2021/12/19 04:23:20;;;;;;;4.43;3.03;;;4.70;99.90;;;5.47;100.00;99710.84;5048136;28;20505;-80
2021/12/19 04:25:52;;;;;;;3.57;3.10;;;4.80;99.90;;;5.51;100.00;99722.66;5047988;28;20476;-80
2021/12/19 04:28:23;;;;;;;5.20;3.90;;;4.80;99.90;;;5.54;100.00;99717.22;5049687;28;21043;-80
2021/12/19 04:30:54;;;;;;;3.13;2.83;;;4.80;99.90;;;5.48;100.00;99715.06;5044161;28;20449;-80
2021/12/19 04:33:25;;;;;;;3.20;2.90;;;4.70;99.90;;;5.46;100.00;99716.97;5047146;28;20510;-80
2021/12/19 04:36:00;;;;;;;4.43;3.47;;;4.60;99.90;;;5.49;100.00;99713.31;5047661;28;20484;-80
2021/12/19 04:39:04;;;;;;;3.93;2.80;;;4.80;99.90;;;5.46;100.00;99716.97;5049701;28;20496;-80
2021/12/19 04:42:25;;;;;;;4.43;3.07;;;4.70;99.90;;;5.49;100.00;99698.56;5048737;28;20523;-80
2021/12/19 04:59:24;;;;;;;4.07;3.10;;;4.60;99.90;;;5.42;100.00;99696.53;5018919;28;20489;-80
2021/12/19 05:02:10;;;;;;;3.10;2.73;;;4.60;99.90;;;5.40;100.00;99688.88;5046954;28;21031;-80
2021/12/19 05:16:05;;;;;;;3.83;2.87;;;4.80;99.90;;;5.46;100.00;99662.47;5006165;28;20516;-80
2021/12/19 05:18:39;;;;;;;3.33;3.03;;;4.80;99.90;;;5.41;100.00;99658.59;5036395;28;20904;-80
2021/12/19 05:21:15;;;;;;;3.60;3.17;;;4.70;99.90;;;5.38;100.00;99658.81;5042092;28;20554;-80
2021/12/19 05:24:20;;;;;;;4.60;3.20;;;4.60;99.90;;;5.40;100.00;99647.38;5044680;28;20488;-80
2021/12/19 05:26:50;;;;;;;3.53;3.10;;;4.70;99.90;;;5.35;100.00;99652.06;5040841;28;20449;-80
2021/12/19 05:29:20;;;;;;;4.33;3.50;;;4.60;99.90;;;5.36;100.00;99658.94;5048617;28;20461;-80
2021/12/19 05:31:52;;;;;;;6.80;4.23;;;4.60;99.90;;;5.38;100.00;99658.81;5047770;28;20547;-80
2021/12/19 05:34:22;;;;;;;4.30;2.93;;;4.60;99.90;;;5.37;100.00;99652.81;5050937;28;20457;-80
2021/12/19 05:45:18;;;;;;;5.90;3.70;;;4.70;99.90;;;5.38;100.00;99633.69;5045687;28;21078;-80
2021/12/19 05:47:52;;;;;;;4.43;3.20;;;4.60;99.90;;;5.34;100.00;99627.09;5041770;28;20451;-80
2021/12/19 05:50:24;;;;;;;5.30;3.90;;;4.60;99.90;;;5.34;100.00;99632.28;5043882;28;20489;-81
2021/12/19 05:52:55;;;;;;;3.87;3.37;;;4.60;99.90;;;5.38;100.00;99625.91;5042578;28;20544;-80
2021/12/19 05:55:25;;;;;;;4.47;3.27;;;4.60;99.90;;;5.37;100.00;99618.25;5046140;28;20511;-80
2021/12/19 05:57:56;;;;;;;4.27;3.43;;;4.50;99.90;;;5.36;100.00;99620.03;5044652;28;20478;-80
2021/12/19 06:00:26;;;;;;;5.77;4.50;;;4.60;99.90;;;5.33;100.00;99614.25;5041992;28;20719;-86
2021/12/19 06:02:58;;;;;;;7.57;5.47;;;4.50;99.90;;;5.37;100.00;99616.50;5042185;28;22742;-80
2021/12/19 06:05:28;;;;;;;4.43;3.63;;;4.60;99.90;;;5.37;100.00;99616.50;5034754;28;20453;-82
2021/12/19 06:08:01;;;;;;;4.17;3.57;;;4.60;99.90;;;5.39;100.00;99608.59;5029530;28;20462;-80
2021/12/19 06:10:30;;;;;;;5.70;3.73;;;4.60;99.90;;;5.39;100.00;99609.41;5037296;28;20562;-81
2021/12/19 06:13:03;;;;;;;4.83;3.40;;;4.70;99.90;;;5.38;100.00;99604.34;5048848;28;20544;-80
2021/12/19 06:15:37;;;;;;;5.50;3.57;;;4.60;99.90;;;5.35;100.00;99597.63;5040496;28;20567;-80
2021/12/19 06:18:08;;;;;;;12.60;8.13;;;4.60;99.90;;;5.33;100.00;99593.50;5043404;28;21531;-80
2021/12/19 06:20:38;;;;;;;5.97;4.60;;;4.50;99.90;;;5.36;100.00;99586.31;5040248;28;20568;-82
2021/12/19 06:23:09;;;;;;;5.83;4.10;;;4.60;99.90;;;5.36;100.00;99591.50;5040678;28;20517;-79
2021/12/19 06:25:45;;;;;;;7.97;4.00;;;4.60;99.90;;;5.36;100.00;99599.28;5046965;28;20449;-80
2021/12/19 06:28:17;;;;;;;4.50;4.07;;;4.50;99.90;;;5.36;100.00;99599.28;5044080;28;20469;-79
2021/12/19 06:30:47;;;;;;;5.97;4.00;;;4.50;99.90;;;5.36;100.00;99599.28;5047422;28;20859;-79
2021/12/19 06:33:19;;;;;;;4.97;3.90;;;4.60;99.90;;;5.37;100.00;99593.16;5049121;28;20873;-79
2021/12/19 06:35:50;;;;;;;5.20;3.93;;;4.60;99.90;;;5.38;100.00;99599.97;5047018;28;20521;-79
2021/12/19 06:38:20;;;;;;;4.20;3.80;;;4.60;99.90;;;5.36;100.00;99604.47;5038496;28;20454;-79
2021/12/19 06:40:49;;;;;;;5.27;4.07;;;4.70;99.90;;;5.33;100.00;99602.09;5038147;28;20518;-79
2021/12/19 06:43:20;;;;;;;4.20;3.73;;;4.70;99.90;;;5.36;100.00;99607.06;5042645;28;20485;-79
2021/12/19 06:45:49;;;;;;;5.63;4.20;;;4.60;99.90;;;5.35;100.00;99595.00;5048609;28;20488;-79
2021/12/19 06:48:22;;;;;;;6.33;3.87;;;4.70;99.90;;;5.39;100.00;99593.84;5058442;28;20877;-79
2021/12/19 06:50:52;;;;;;;6.73;4.63;;;4.70;99.90;;;5.40;100.00;99595.50;5044291;28;20474;-80
2021/12/19 06:53:22;;;;;;;8.80;4.80;;;4.70;99.90;;;5.39;100.00;99598.22;5033239;28;20465;-79
2021/12/19 06:55:52;;;;;;;4.77;4.17;;;4.70;99.90;;;5.39;100.00;99591.25;5039859;28;20489;-79
2021/12/19 06:58:22;;;;;;;6.43;3.97;;;4.70;99.90;;;5.38;100.00;99588.78;5044547;28;20461;-79
2021/12/19 07:00:51;;;;;;;5.03;3.70;;;4.70;99.90;;;5.35;100.00;99587.25;5049652;28;20514;-79
2021/12/19 07:03:25;;;;;;;4.73;3.03;;;4.70;99.90;;;5.27;100.00;99584.41;5038631;28;20584;-79
2021/12/19 07:05:53;;;;;;;3.73;3.30;;;4.60;99.90;;;5.28;100.00;99591.22;5041431;28;21057;-79
2021/12/19 07:08:24;;;;;;;5.47;3.87;;;4.70;99.90;;;5.26;100.00;99587.94;5042328;28;20470;-79
2021/12/19 07:10:53;;;;;;;5.53;3.93;;;4.60;99.90;;;5.30;100.00;99591.97;5045000;28;20469;-79
2021/12/19 07:13:23;;;;;;;6.23;4.33;;;4.60;99.90;;;5.30;100.00;99589.38;5032032;28;20466;-80
2021/12/19 07:16:02;;;;;;;5.77;4.40;;;4.60;99.90;;;5.32;100.00;99581.47;5044434;28;20832;-79
2021/12/19 07:18:33;;;;;;;6.47;4.50;;;4.60;99.90;;;5.34;100.00;99585.59;5039433;28;20552;-80
2021/12/19 07:21:04;;;;;;;8.10;4.50;;;4.60;99.90;;;5.35;100.00;99582.06;5045538;28;20484;-79
2021/12/19 07:23:35;;;;;;;6.20;4.40;;;4.60;99.90;;;5.37;100.00;99589.72;5039901;28;20484;-80
2021/12/19 07:26:05;;;;;;;5.90;4.50;;;4.60;99.90;;;5.38;100.00;99592.19;5046113;28;20476;-79
2021/12/19 07:28:36;;;;;;;5.40;4.23;;;4.60;99.90;;;5.40;100.00;99595.50;5044827;28;20473;-80
2021/12/19 07:31:06;;;;;;;5.20;4.00;;;4.60;99.90;;;5.43;100.00;99595.28;5043439;28;20553;-80
2021/12/19 07:33:38;;;;;;;5.30;3.60;;;4.60;99.90;;;5.44;100.00;99602.13;5043551;28;20463;-79
2021/12/19 07:36:08;;;;;;;9.40;5.90;;;4.60;99.90;;;5.45;100.00;99606.34;5037390;28;20951;-79
2021/12/19 07:38:51;;;;;;;8.83;5.60;;;4.60;99.90;;;5.46;100.00;99607.19;5034532;28;20468;-80
2021/12/19 07:41:22;;;;;;;7.37;5.50;;;4.70;99.90;;;5.45;100.00;99603.75;5041529;28;20775;-80
2021/12/19 07:43:52;;;;;;;6.20;4.50;;;4.60;99.90;;;5.45;100.00;99598.56;5043053;28;20489;-80
2021/12/19 07:46:23;;;;;;;10.60;3.90;;;4.60;99.90;;;5.43;100.00;99595.28;5041768;28;20575;-80
2021/12/19 07:48:55;;;;;;;7.03;4.70;;;4.60;99.90;;;5.46;100.00;99587.25;5045393;28;20484;-80
2021/12/19 07:51:24;;;;;;;5.27;4.37;;;4.70;99.90;;;5.50;100.00;99591.28;5039056;28;21224;-80
2021/12/19 07:53:55;;;;;;;5.93;3.67;;;4.70;99.90;;;5.49;100.00;99581.84;5046697;28;20461;-80
2021/12/19 07:56:26;;;;;;;6.93;3.80;;;4.70;99.90;;;5.48;100.00;99587.94;5042575;28;20465;-80
2021/12/19 07:58:57;;;;;;;5.57;4.07;;;4.70;99.90;;;5.50;100.00;99580.91;5047176;28;20484;-80
2021/12/19 08:01:25;;;;;;;6.67;3.90;;;4.70;99.90;;;5.52;100.00;99588.53;5048690;28;20473;-80
2021/12/19 08:03:57;;;;;;;9.10;5.13;;;4.70;99.90;;;5.51;100.00;99582.56;5049603;28;20488;-80
2021/12/19 08:06:30;;;;;;;7.70;4.20;;;4.80;99.90;;;5.50;100.00;99590.44;5045862;28;21013;-79
2021/12/19 08:09:08;;;;;;;6.07;4.80;;;4.70;99.90;;;5.51;100.00;99585.16;5048832;28;20551;-80
2021/12/19 08:11:39;;;;;;;6.30;4.47;;;4.80;99.90;;;5.53;100.00;99585.03;5045024;28;20582;-81
2021/12/19 08:14:13;;;;;;;5.93;3.97;;;4.80;99.90;;;5.55;100.00;99586.53;5041067;28;20457;-80
2021/12/19 08:16:44;;;;;;;5.97;4.20;;;4.80;99.90;;;5.55;100.00;99578.75;5049812;28;20491;-80
2021/12/19 08:19:16;;;;;;;7.37;4.97;;;4.80;99.90;;;5.56;100.00;99580.41;5047431;28;20957;-80
2021/12/19 08:21:47;;;;;;;5.93;4.60;;;4.80;99.90;;;5.54;100.00;99577.13;5048933;28;20840;-80
2021/12/19 08:24:17;;;;;;;6.13;4.33;;;4.80;99.90;;;5.57;100.00;99574.31;5049221;28;20496;-80
2021/12/19 08:26:46;;;;;;;6.30;4.20;;;4.90;99.90;;;5.59;100.00;99569.81;5047960;28;20496;-80
2021/12/19 08:29:16;;;;;;;7.13;4.17;;;4.90;99.90;;;5.61;100.00;99568.88;5041051;28;20532;-80
2021/12/19 08:31:47;;;;;;;8.30;4.80;;;4.90;99.90;;;5.61;100.00;99567.09;5039330;28;20461;-80
2021/12/19 08:34:20;;;;;;;6.67;4.77;;;4.90;99.90;;;5.64;100.00;99566.03;5042453;28;20465;-80
2021/12/19 08:36:50;;;;;;;5.10;4.47;;;4.90;99.90;;;5.64;100.00;99560.84;5043517;28;20465;-80
2021/12/19 08:39:21;;;;;;;6.43;4.87;;;4.90;99.90;;;5.69;100.00;99556.97;5048181;28;20441;-80
2021/12/19 08:41:51;;;;;;;9.90;5.70;;;4.90;99.90;;;5.68;100.00;99557.06;5042700;28;20501;-80
2021/12/19 08:44:21;;;;;;;9.37;5.13;;;4.90;99.90;;;5.71;100.00;99551.66;5048306;28;20496;-80
2021/12/19 08:46:49;;;;;;;8.93;5.03;;;5.00;99.90;;;5.72;100.00;99559.31;5040892;28;20461;-81
2021/12/19 08:49:20;;;;;;;7.17;5.10;;;5.00;99.90;;;5.72;100.00;99554.13;5038557;28;20461;-79
2021/12/19 08:51:50;;;;;;;7.50;5.10;;;5.10;99.90;;;5.70;100.00;99555.16;5039751;28;20957;-80
2021/12/19 08:54:21;;;;;;;6.73;4.77;;;5.10;99.90;;;5.73;100.00;99557.53;5042762;28;20461;-79
2021/12/19 08:56:51;;;;;;;9.17;5.50;;;5.10;99.90;;;5.77;100.00;99548.56;5043544;28;20465;-79
2021/12/19 08:59:21;;;;;;;6.47;4.53;;;5.00;99.90;;;5.81;100.00;99557.75;5048380;28;20520;-79
2021/12/19 09:01:50;;;;;;;7.37;5.43;;;5.10;99.90;;;5.79;100.00;99554.47;5049016;28;20469;-80
2021/12/19 09:04:21;;;;;;;7.20;4.63;;;5.10;99.90;;;5.81;100.00;99552.56;5041463;28;20511;-79
2021/12/19 09:06:51;;;;;;;7.20;4.40;;;5.10;99.90;;;5.81;100.00;99552.56;5040183;28;20493;-79
2021/12/19 09:09:20;;;;;;;10.50;4.70;;;5.10;99.90;;;5.85;100.00;99549.63;5047131;28;20473;-80
2021/12/19 09:11:50;;;;;;;6.27;4.77;;;5.10;99.90;;;5.88;100.00;99543.41;5045060;28;20464;-80
2021/12/19 09:14:19;;;;;;;6.47;4.87;;;5.20;99.90;;;5.88;100.00;99553.78;5040287;28;20485;-80
2021/12/19 09:16:49;;;;;;;11.83;5.27;;;5.20;99.90;;;5.93;100.00;99546.47;5041113;28;20489;-80
2021/12/19 09:19:22;;;;;;;9.77;5.20;;;5.20;99.90;;;5.95;100.00;99541.97;5037275;28;20457;-80
2021/12/19 09:21:51;;;;;;;8.87;4.80;;;5.20;99.90;;;5.95;100.00;99539.38;5044584;28;20460;-80
2021/12/19 09:24:22;;;;;;;6.63;4.53;;;5.30;99.90;;;5.97;100.00;99537.50;5043425;28;20465;-80
2021/12/19 09:26:52;;;;;;;9.20;5.43;;;5.30;99.90;;;5.97;100.00;99542.69;5041231;28;20466;-80
2021/12/19 09:29:26;;;;;;;10.10;5.70;;;5.30;99.90;;;6.02;100.00;99540.53;5039402;28;20627;-80
2021/12/19 09:31:56;;;;;;;9.73;5.27;;;5.30;99.90;;;6.07;100.00;99541.03;5046693;28;20484;-80
2021/12/19 09:34:28;;;;;;;8.23;4.90;;;5.40;99.90;;;6.10;100.00;99545.13;5046068;28;20798;-80
2021/12/19 09:36:59;;;;;;;8.90;5.03;;;5.40;99.90;;;6.12;100.00;99543.22;5041177;28;20465;-80
2021/12/19 09:39:30;;;;;;;6.77;4.40;;;5.40;99.90;;;6.13;100.00;99550.09;5046440;28;20509;-79
2021/12/19 09:42:09;;;;;;;8.50;5.53;;;5.40;99.90;;;6.18;100.00;99550.56;5043984;28;20518;-80
2021/12/19 09:44:41;;;;;;;7.93;5.00;;;5.50;99.90;;;6.19;100.00;99547.81;5040820;28;20558;-80
2021/12/19 09:47:11;;;;;;;9.37;5.37;;;5.40;99.90;;;6.19;100.00;99540.03;5043267;28;20487;-81
2021/12/19 09:49:41;;;;;;;7.33;5.00;;;5.50;99.90;;;6.23;100.00;99538.84;5046319;28;20523;-81
2021/12/19 09:52:10;;;;;;;8.10;5.00;;;5.60;99.90;;;6.27;100.00;99540.25;5044618;28;20532;-79
2021/12/19 09:54:42;;;;;;;9.30;4.57;;;5.60;99.90;;;6.29;100.00;99532.31;5038471;28;20917;-79
2021/12/19 09:57:12;;;;;;;8.17;4.97;;;5.70;99.90;;;6.30;100.00;99524.41;5041563;28;20477;-78
2021/12/19 09:59:44;;;;;;;6.90;4.53;;;5.70;99.90;;;6.30;100.00;99516.63;5041385;28;20490;-79
2021/12/19 10:02:15;;;;;;;7.67;4.90;;;5.60;99.90;;;6.33;100.00;99507.75;5041680;28;20467;-79
2021/12/19 10:04:47;;;;;;;8.93;4.87;;;5.70;99.90;;;6.33;100.00;99508.59;5041290;28;20545;-78
2021/12/19 10:07:21;;;;;;;7.80;4.97;;;5.60;99.90;;;6.34;100.00;99518.03;5038977;28;20473;-79
2021/12/19 10:09:59;;;;;;;7.83;4.83;;;5.70;99.90;;;6.34;100.00;99525.81;5040327;28;20488;-79
2021/12/19 10:12:49;;;;;;;6.47;4.80;;;5.70;99.90;;;6.36;100.00;99504.91;5044280;28;20465;-79
2021/12/19 10:15:22;;;;;;;7.17;4.70;;;5.70;99.90;;;6.33;100.00;99508.59;5041134;28;20465;-79
2021/12/19 10:18:04;;;;;;;8.70;4.77;;;5.70;99.90;;;6.38;100.00;99500.44;5039890;28;20468;-78
2021/12/19 10:20:52;;;;;;;9.90;5.37;;;5.80;99.90;;;6.44;100.00;99490.34;5041311;28;20461;-79
2021/12/19 10:23:25;;;;;;;8.20;4.67;;;5.80;99.90;;;6.45;100.00;99486.00;5046116;28;20469;-79
2021/12/19 10:26:02;;;;;;;12.47;4.80;;;5.80;99.90;;;6.48;100.00;99486.56;5047257;28;20572;-78
2021/12/19 10:28:34;;;;;;;17.00;10.10;;;5.80;99.90;;;6.54;100.00;99491.25;5037431;28;20457;-78
2021/12/19 10:31:05;;;;;;;8.33;5.27;;;5.80;99.90;;;6.56;100.00;99484.13;5038735;28;20547;-79
2021/12/19 10:33:37;;;;;;;10.73;4.57;;;6.00;99.90;;;6.58;100.00;99486.63;5044018;28;20464;-77
2021/12/19 10:36:10;;;;;;;6.90;4.43;;;6.10;99.90;;;6.62;100.00;99476.81;5047427;28;20534;-78
2021/12/19 10:38:44;;;;;;;7.73;4.80;;;6.10;99.90;;;6.66;100.00;99462.59;5033998;28;20465;-79
2021/12/19 10:41:19;;;;;;;8.20;4.67;;;6.10;99.90;;;6.69;100.00;99459.75;5050999;28;20451;-79
2021/12/19 10:43:58;;;;;;;8.20;4.90;;;6.10;99.90;;;6.70;100.00;99461.41;5042032;28;20864;-79
2021/12/19 10:46:32;;;;;;;6.00;3.90;;;6.20;99.90;;;6.69;100.00;99457.16;5045323;28;20484;-79
2021/12/19 10:49:04;;;;;;;6.13;4.43;;;6.10;99.90;;;6.73;100.00;99453.34;5045549;28;20518;-79
2021/12/19 10:51:41;;;;;;;7.87;4.20;;;6.10;99.90;;;6.74;100.00;99448.00;5044531;28;20950;-79
2021/12/19 10:54:12;;;;;;;6.17;4.10;;;6.20;99.90;;;6.74;100.00;99441.97;5048023;28;20442;-79
2021/12/19 10:56:43;;;;;;;6.87;3.97;;;6.10;99.90;;;6.78;100.00;99430.38;5048032;28;20845;-79
2021/12/19 10:59:16;;;;;;;8.87;4.60;;;6.20;99.90;;;6.81;100.00;99430.13;5047687;28;20476;-79
2021/12/19 11:01:48;;;;;;;7.13;4.77;;;6.20;99.90;;;6.83;100.00;99433.44;5046855;28;20460;-79
2021/12/19 11:04:21;;;;;;;7.97;4.67;;;6.20;99.90;;;6.86;100.00;99422.78;5042039;28;20442;-79
2021/12/19 11:06:56;;;;;;;5.73;4.03;;;6.30;99.90;;;6.86;100.00;99422.78;5047146;28;20497;-79
2021/12/19 11:09:28;;;;;;;6.57;4.70;;;6.30;99.90;;;6.88;100.00;99420.84;5048306;28;20575;-79
2021/12/19 11:12:02;;;;;;;5.50;4.17;;;6.20;99.90;;;6.92;100.00;99417.03;5047276;28;20629;-79
2021/12/19 11:14:37;;;;;;;12.37;4.97;;;6.30;99.90;;;6.95;100.00;99417.59;5045775;28;20453;-79
2021/12/19 11:17:09;;;;;;;7.63;4.37;;;6.30;99.90;;;6.89;100.00;99414.72;5047769;28;20461;-79
2021/12/19 11:19:40;;;;;;;6.67;4.23;;;6.30;99.90;;;6.91;100.00;99417.97;5047618;28;20548;-79
2021/12/19 11:22:24;;;;;;;4.13;3.17;;;6.30;99.90;;;6.93;100.00;99413.50;5050345;28;20485;-79
2021/12/19 11:24:57;;;;;;;5.70;4.17;;;6.30;99.90;;;6.93;100.00;99408.28;5044969;28;20475;-79
2021/12/19 11:27:29;;;;;;;6.67;4.53;;;6.30;99.90;;;6.98;100.00;99398.31;5053094;28;20472;-79
2021/12/19 11:29:59;;;;;;;5.10;4.10;;;6.40;99.90;;;6.98;100.00;99380.09;5051301;28;20457;-79
2021/12/19 11:32:43;;;;;;;4.13;3.47;;;6.40;99.90;;;6.98;100.00;99380.09;5051566;28;20455;-79
2021/12/19 11:35:21;;;;;;;4.33;3.20;;;6.40;99.90;;;6.98;100.00;99374.91;5051778;28;20531;-79